createdAt,value
2023-04-15T00:00:00.942Z,9.06
2023-04-15T00:01:00.935Z,9.06
2023-04-15T00:02:01.012Z,9.08
2023-04-15T00:03:01.029Z,9.06
2023-04-15T00:04:00.987Z,9.10
2023-04-15T00:05:00.910Z,9.06
2023-04-15T00:06:00.877Z,9.06
2023-04-15T00:07:00.856Z,9.04
2023-04-15T00:08:00.870Z,9.04
2023-04-15T00:09:01.297Z,9.04
2023-04-15T00:10:00.842Z,9.08
2023-04-15T00:11:00.819Z,9.08
2023-04-15T00:12:00.812Z,9.06
2023-04-15T00:13:00.806Z,9.08
2023-04-15T00:14:00.826Z,9.06
2023-04-15T00:15:00.780Z,9.08
2023-04-15T00:16:00.777Z,9.06
2023-04-15T00:17:00.812Z,9.06
2023-04-15T00:18:00.788Z,9.04
2023-04-15T00:19:00.993Z,9.08
2023-04-15T00:20:00.742Z,9.04
2023-04-15T00:21:00.720Z,9.04
2023-04-15T00:22:00.715Z,9.04
2023-04-15T00:23:00.708Z,9.06
2023-04-15T00:24:00.706Z,9.06
2023-04-15T00:25:00.673Z,9.06
2023-04-15T00:26:00.679Z,9.08
2023-04-15T00:27:00.667Z,9.08
2023-04-15T00:28:00.661Z,9.10
2023-04-15T00:29:00.864Z,9.10
2023-04-15T00:30:00.623Z,9.06
2023-04-15T00:31:00.648Z,9.08
2023-04-15T00:32:00.603Z,9.08
2023-04-15T00:33:00.649Z,9.08
2023-04-15T00:34:00.616Z,9.10
2023-04-15T00:35:00.575Z,9.10
2023-04-15T00:36:00.565Z,9.08
2023-04-15T00:37:00.549Z,9.06
2023-04-15T00:38:00.581Z,9.06
2023-04-15T00:39:00.826Z,9.08
2023-04-15T00:40:00.535Z,9.04
2023-04-15T00:41:00.530Z,9.06
2023-04-15T00:42:00.516Z,9.06
2023-04-15T00:43:00.526Z,9.06
2023-04-15T00:44:00.568Z,9.04
2023-04-15T00:45:00.495Z,9.06
2023-04-15T00:46:00.547Z,9.04
2023-04-15T00:47:00.451Z,9.04
2023-04-15T00:48:00.537Z,9.06
2023-04-15T00:49:00.743Z,9.04
2023-04-15T00:50:00.474Z,9.06
2023-04-15T00:51:00.411Z,9.06
2023-04-15T00:52:00.419Z,9.06
2023-04-15T00:53:00.384Z,9.10
2023-04-15T00:54:00.429Z,9.06
2023-04-15T00:55:00.368Z,9.10
2023-04-15T00:56:00.364Z,9.06
2023-04-15T00:57:00.356Z,9.10
2023-04-15T00:58:00.363Z,9.08
2023-04-15T00:59:00.516Z,9.12
2023-04-15T01:00:00.311Z,9.12
2023-04-15T01:01:00.302Z,9.13
2023-04-15T01:02:00.432Z,9.13
2023-04-15T01:03:00.513Z,9.13
2023-04-15T01:04:00.489Z,9.15
2023-04-15T01:05:00.682Z,9.15
2023-04-15T01:06:01.532Z,9.17
2023-04-15T01:07:00.241Z,9.19
2023-04-15T01:08:00.230Z,9.17
2023-04-15T01:09:00.530Z,9.17
2023-04-15T01:10:00.253Z,9.19
2023-04-15T01:11:00.207Z,9.17
2023-04-15T01:12:00.194Z,9.19
2023-04-15T01:13:00.221Z,9.19
2023-04-15T01:14:00.157Z,9.16
2023-04-15T01:15:00.243Z,9.17
2023-04-15T01:16:00.231Z,9.17
2023-04-15T01:17:00.187Z,9.16
2023-04-15T01:18:00.390Z,9.20
2023-04-15T01:19:00.447Z,9.16
2023-04-15T01:20:00.132Z,9.17
2023-04-15T01:21:00.100Z,9.17
2023-04-15T01:22:00.115Z,9.17
2023-04-15T01:23:00.097Z,9.20
2023-04-15T01:24:00.084Z,9.19
2023-04-15T01:25:00.049Z,9.17
2023-04-15T01:26:00.055Z,9.17
2023-04-15T01:27:00.030Z,9.17
2023-04-15T01:28:00.050Z,9.16
2023-04-15T01:29:00.214Z,9.17
2023-04-15T01:30:00.045Z,9.13
2023-04-15T01:30:59.976Z,9.13
2023-04-15T01:31:59.993Z,9.12
2023-04-15T01:33:00.021Z,9.12
2023-04-15T01:33:59.972Z,9.10
2023-04-15T01:34:59.954Z,9.12
2023-04-15T01:35:59.929Z,9.06
2023-04-15T01:36:59.921Z,9.10
2023-04-15T01:37:59.954Z,9.12
2023-04-15T01:39:00.154Z,9.13
2023-04-15T01:39:59.894Z,9.12
2023-04-15T01:40:59.879Z,9.13
2023-04-15T01:41:59.890Z,9.16
2023-04-15T01:42:59.888Z,9.13
2023-04-15T01:43:59.857Z,9.12
2023-04-15T01:44:59.842Z,9.13
2023-04-15T01:45:59.821Z,9.13
2023-04-15T01:46:59.926Z,9.13
2023-04-15T01:47:59.906Z,9.13
2023-04-15T01:48:59.941Z,9.12
2023-04-15T01:49:59.804Z,9.12
2023-04-15T01:50:59.778Z,9.08
2023-04-15T01:51:59.767Z,9.08
2023-04-15T01:52:59.796Z,9.12
2023-04-15T01:53:59.746Z,9.10
2023-04-15T01:54:59.731Z,9.13
2023-04-15T01:55:59.734Z,9.13
2023-04-15T01:56:59.703Z,9.12
2023-04-15T01:57:59.699Z,9.10
2023-04-15T01:58:59.984Z,9.10
2023-04-15T01:59:59.709Z,9.10
2023-04-15T02:00:59.720Z,9.10
2023-04-15T02:01:59.687Z,9.10
2023-04-15T02:02:59.770Z,9.08
2023-04-15T02:03:59.664Z,9.10
2023-04-15T02:04:59.672Z,9.10
2023-04-15T02:05:59.629Z,9.10
2023-04-15T02:06:59.621Z,9.12
2023-04-15T02:07:59.639Z,9.12
2023-04-15T02:08:59.902Z,9.13
2023-04-15T02:09:59.599Z,9.12
2023-04-15T02:10:59.561Z,9.10
2023-04-15T02:11:59.566Z,9.10
2023-04-15T02:12:59.580Z,9.12
2023-04-15T02:13:59.536Z,9.12
2023-04-15T02:14:59.535Z,9.12
2023-04-15T02:15:59.504Z,9.13
2023-04-15T02:16:59.612Z,9.10
2023-04-15T02:17:59.606Z,9.12
2023-04-15T02:18:59.698Z,9.13
2023-04-15T02:19:59.486Z,9.10
2023-04-15T02:20:59.448Z,9.12
2023-04-15T02:21:59.442Z,9.13
2023-04-15T02:22:59.440Z,9.13
2023-04-15T02:23:59.434Z,9.13
2023-04-15T02:24:59.419Z,9.15
2023-04-15T02:25:59.396Z,9.15
2023-04-15T02:26:59.390Z,9.17
2023-04-15T02:27:59.407Z,9.16
2023-04-15T02:28:59.580Z,9.15
2023-04-15T02:29:59.365Z,9.16
2023-04-15T02:30:59.392Z,9.16
2023-04-15T02:31:59.396Z,9.16
2023-04-15T02:32:59.427Z,9.15
2023-04-15T02:33:59.332Z,9.13
2023-04-15T02:34:59.328Z,9.15
2023-04-15T02:35:59.331Z,9.13
2023-04-15T02:36:59.289Z,9.15
2023-04-15T02:37:59.294Z,9.13
2023-04-15T02:38:59.452Z,9.15
2023-04-15T02:39:59.340Z,9.13
2023-04-15T02:40:59.254Z,9.16
2023-04-15T02:41:59.260Z,9.15
2023-04-15T02:42:59.252Z,9.16
2023-04-15T02:43:59.234Z,9.16
2023-04-15T02:44:59.223Z,9.16
2023-04-15T02:45:59.248Z,9.19
2023-04-15T02:46:59.177Z,9.17
2023-04-15T02:47:59.271Z,9.22
2023-04-15T02:48:59.538Z,9.19
2023-04-15T02:49:59.149Z,9.22
2023-04-15T02:50:59.137Z,9.20
2023-04-15T02:51:59.159Z,9.22
2023-04-15T02:52:59.119Z,9.22
2023-04-15T02:53:59.104Z,9.23
2023-04-15T02:54:59.098Z,9.24
2023-04-15T02:55:59.083Z,9.23
2023-04-15T02:56:59.133Z,9.23
2023-04-15T02:57:59.063Z,9.26
2023-04-15T02:58:59.140Z,9.26
2023-04-15T02:59:59.090Z,9.22
2023-04-15T03:00:59.076Z,9.23
2023-04-15T03:01:59.069Z,9.24
2023-04-15T03:02:59.170Z,9.23
2023-04-15T03:03:59.122Z,9.24
2023-04-15T03:04:59.010Z,9.24
2023-04-15T03:05:58.982Z,9.26
2023-04-15T03:06:59.038Z,9.26
2023-04-15T03:07:58.965Z,9.27
2023-04-15T03:08:59.114Z,9.30
2023-04-15T03:09:58.948Z,9.27
2023-04-15T03:10:58.949Z,9.30
2023-04-15T03:11:58.931Z,9.30
2023-04-15T03:12:58.908Z,9.30
2023-04-15T03:13:58.889Z,9.30
2023-04-15T03:14:58.875Z,9.31
2023-04-15T03:15:58.970Z,9.34
2023-04-15T03:16:58.886Z,9.32
2023-04-15T03:17:58.904Z,9.35
2023-04-15T03:18:58.913Z,9.34
2023-04-15T03:19:58.867Z,9.34
2023-04-15T03:20:58.825Z,9.34
2023-04-15T03:21:58.837Z,9.34
2023-04-15T03:22:58.857Z,9.32
2023-04-15T03:23:58.786Z,9.31
2023-04-15T03:24:58.837Z,9.32
2023-04-15T03:25:58.764Z,9.31
2023-04-15T03:26:58.778Z,9.31
2023-04-15T03:27:58.748Z,9.34
2023-04-15T03:28:58.917Z,9.34
2023-04-15T03:29:58.715Z,9.34
2023-04-15T03:30:58.805Z,9.35
2023-04-15T03:31:58.712Z,9.34
2023-04-15T03:32:58.727Z,9.32
2023-04-15T03:33:58.676Z,9.32
2023-04-15T03:34:58.686Z,9.34
2023-04-15T03:35:58.656Z,9.34
2023-04-15T03:36:58.640Z,9.35
2023-04-15T03:37:58.629Z,9.35
2023-04-15T03:38:58.827Z,9.35
2023-04-15T03:39:58.688Z,9.37
2023-04-15T03:40:58.623Z,9.38
2023-04-15T03:41:58.607Z,9.40
2023-04-15T03:42:58.603Z,9.38
2023-04-15T03:43:58.573Z,9.40
2023-04-15T03:44:58.570Z,9.38
2023-04-15T03:45:59.729Z,9.41
2023-04-15T03:46:58.586Z,9.41
2023-04-15T03:48:11.265Z,9.38
2023-04-15T03:48:58.504Z,9.40
2023-04-15T03:49:58.457Z,9.41
2023-04-15T03:50:58.441Z,9.41
2023-04-15T03:51:58.503Z,9.38
2023-04-15T03:52:58.497Z,9.40
2023-04-15T03:53:58.428Z,9.41
2023-04-15T03:54:58.426Z,9.41
2023-04-15T03:55:58.403Z,9.40
2023-04-15T03:56:58.382Z,9.41
2023-04-15T03:57:58.361Z,9.42
2023-04-15T03:58:58.704Z,9.42
2023-04-15T03:59:58.366Z,9.42
2023-04-15T04:00:58.338Z,9.41
2023-04-15T04:01:58.523Z,9.42
2023-04-15T04:02:58.595Z,9.42
2023-04-15T04:03:58.356Z,9.44
2023-04-15T04:04:58.317Z,9.44
2023-04-15T04:05:58.277Z,9.42
2023-04-15T04:06:58.274Z,9.44
2023-04-15T04:07:58.272Z,9.45
2023-04-15T04:08:58.300Z,9.45
2023-04-15T04:09:58.285Z,9.45
2023-04-15T04:10:58.242Z,9.45
2023-04-15T04:11:58.243Z,9.45
2023-04-15T04:12:58.209Z,9.45
2023-04-15T04:13:58.212Z,9.48
2023-04-15T04:15:05.453Z,9.49
2023-04-15T04:15:58.270Z,9.48
2023-04-15T04:16:58.228Z,9.49
2023-04-15T04:17:59.804Z,9.48
2023-04-15T04:18:58.170Z,9.49
2023-04-15T04:19:58.170Z,9.49
2023-04-15T04:20:58.137Z,9.49
2023-04-15T04:21:58.156Z,9.50
2023-04-15T04:22:58.195Z,9.50
2023-04-15T04:23:58.142Z,9.52
2023-04-15T04:24:58.097Z,9.50
2023-04-15T04:25:58.117Z,9.52
2023-04-15T04:26:58.073Z,9.53
2023-04-15T04:27:58.060Z,9.52
2023-04-15T04:28:58.066Z,9.53
2023-04-15T04:29:58.033Z,9.53
2023-04-15T04:30:58.055Z,9.55
2023-04-15T04:31:58.054Z,9.56
2023-04-15T04:32:58.053Z,9.56
2023-04-15T04:33:57.995Z,9.58
2023-04-15T04:34:58.013Z,9.56
2023-04-15T04:35:57.986Z,9.59
2023-04-15T04:36:57.989Z,9.59
2023-04-15T04:37:57.942Z,9.60
2023-04-15T04:38:57.972Z,9.62
2023-04-15T04:39:57.930Z,9.62
2023-04-15T04:40:57.949Z,9.60
2023-04-15T04:41:57.912Z,9.63
2023-04-15T04:42:57.919Z,9.63
2023-04-15T04:43:57.908Z,9.67
2023-04-15T04:44:57.888Z,9.67
2023-04-15T04:45:57.912Z,9.68
2023-04-15T04:46:57.858Z,9.68
2023-04-15T04:47:57.915Z,9.70
2023-04-15T04:48:57.856Z,9.70
2023-04-15T04:49:57.838Z,9.70
2023-04-15T04:50:57.829Z,9.70
2023-04-15T04:51:57.834Z,9.70
2023-04-15T04:52:57.825Z,9.73
2023-04-15T04:53:57.768Z,9.73
2023-04-15T04:54:57.797Z,9.74
2023-04-15T04:55:57.779Z,9.71
2023-04-15T04:56:57.766Z,9.74
2023-04-15T04:57:57.727Z,9.75
2023-04-15T04:58:57.765Z,9.75
2023-04-15T04:59:57.741Z,9.74
2023-04-15T05:00:57.756Z,9.74
2023-04-15T05:01:57.718Z,9.74
2023-04-15T05:02:57.899Z,9.74
2023-04-15T05:03:57.734Z,9.74
2023-04-15T05:04:57.671Z,9.74
2023-04-15T05:05:57.681Z,9.74
2023-04-15T05:06:57.674Z,9.74
2023-04-15T05:07:57.624Z,9.74
2023-04-15T05:08:57.657Z,9.75
2023-04-15T05:09:57.641Z,9.77
2023-04-15T05:10:57.652Z,9.77
2023-04-15T05:11:57.600Z,9.77
2023-04-15T05:12:57.607Z,9.77
2023-04-15T05:13:57.566Z,9.77
2023-04-15T05:14:57.584Z,9.78
2023-04-15T05:15:57.645Z,9.80
2023-04-15T05:16:57.543Z,9.83
2023-04-15T05:17:57.597Z,9.80
2023-04-15T05:18:57.524Z,9.81
2023-04-15T05:19:57.522Z,9.81
2023-04-15T05:20:57.530Z,9.83
2023-04-15T05:21:57.486Z,9.86
2023-04-15T05:22:57.501Z,9.85
2023-04-15T05:23:57.464Z,9.85
2023-04-15T05:24:57.591Z,9.86
2023-04-15T05:25:57.495Z,9.88
2023-04-15T05:26:57.446Z,9.88
2023-04-15T05:27:57.425Z,9.88
2023-04-15T05:28:57.454Z,9.91
2023-04-15T05:29:57.430Z,9.89
2023-04-15T05:30:57.422Z,9.91
2023-04-15T05:31:57.389Z,9.89
2023-04-15T05:32:57.393Z,9.91
2023-04-15T05:33:57.358Z,9.93
2023-04-15T05:34:57.380Z,9.93
2023-04-15T05:35:57.345Z,9.95
2023-04-15T05:36:57.334Z,9.96
2023-04-15T05:37:57.333Z,9.96
2023-04-15T05:38:57.328Z,9.99
2023-04-15T05:39:57.331Z,9.99
2023-04-15T05:40:57.308Z,10.02
2023-04-15T05:41:57.270Z,10.02
2023-04-15T05:42:57.299Z,10.04
2023-04-15T05:43:57.266Z,10.04
2023-04-15T05:44:57.280Z,10.06
2023-04-15T05:45:57.344Z,10.06
2023-04-15T05:46:57.252Z,10.07
2023-04-15T05:47:57.269Z,10.09
2023-04-15T05:48:57.226Z,10.10
2023-04-15T05:49:57.252Z,10.13
2023-04-15T05:50:57.238Z,10.13
2023-04-15T05:51:57.183Z,10.13
2023-04-15T05:52:57.202Z,10.14
2023-04-15T05:53:57.148Z,10.17
2023-04-15T05:54:57.150Z,10.16
2023-04-15T05:55:57.147Z,10.18
2023-04-15T05:56:57.203Z,10.18
2023-04-15T05:57:57.103Z,10.18
2023-04-15T05:58:57.124Z,10.20
2023-04-15T05:59:57.111Z,10.25
2023-04-15T06:00:57.087Z,10.26
2023-04-15T06:01:57.095Z,10.26
2023-04-15T06:02:57.154Z,10.28
2023-04-15T06:03:57.241Z,10.29
2023-04-15T06:04:57.110Z,10.29
2023-04-15T06:05:57.044Z,10.31
2023-04-15T06:06:57.010Z,10.31
2023-04-15T06:07:57.004Z,10.31
2023-04-15T06:08:56.994Z,10.32
2023-04-15T06:09:57.018Z,10.35
2023-04-15T06:10:56.976Z,10.35
2023-04-15T06:11:57.015Z,10.36
2023-04-15T06:12:56.966Z,10.36
2023-04-15T06:13:56.952Z,10.36
2023-04-15T06:14:58.910Z,10.39
2023-04-15T06:15:56.956Z,10.42
2023-04-15T06:16:56.927Z,10.42
2023-04-15T06:17:56.997Z,10.42
2023-04-15T06:18:56.896Z,10.44
2023-04-15T06:19:56.907Z,10.47
2023-04-15T06:20:56.883Z,10.47
2023-04-15T06:21:56.856Z,10.52
2023-04-15T06:22:56.843Z,10.52
2023-04-15T06:23:56.830Z,10.51
2023-04-15T06:24:56.866Z,10.55
2023-04-15T06:25:56.804Z,10.60
2023-04-15T06:26:56.813Z,10.60
2023-04-15T06:27:56.802Z,10.60
2023-04-15T06:28:56.799Z,10.66
2023-04-15T06:29:56.808Z,10.66
2023-04-15T06:30:56.801Z,10.69
2023-04-15T06:31:56.813Z,10.73
2023-04-15T06:32:56.796Z,10.75
2023-04-15T06:33:56.734Z,10.76
2023-04-15T06:34:56.744Z,10.75
2023-04-15T06:35:56.719Z,10.76
2023-04-15T06:36:56.728Z,10.78
2023-04-15T06:37:56.713Z,10.78
2023-04-15T06:38:56.700Z,10.78
2023-04-15T06:39:56.690Z,10.80
2023-04-15T06:40:56.673Z,10.81
2023-04-15T06:41:56.664Z,10.84
2023-04-15T06:42:56.638Z,10.88
2023-04-15T06:43:56.619Z,10.91
2023-04-15T06:44:56.626Z,10.91
2023-04-15T06:45:56.633Z,10.99
2023-04-15T06:46:56.643Z,11.02
2023-04-15T06:47:56.629Z,11.03
2023-04-15T06:48:56.576Z,11.05
2023-04-15T06:49:56.600Z,11.08
2023-04-15T06:50:56.596Z,11.08
2023-04-15T06:51:56.668Z,11.11
2023-04-15T06:52:56.545Z,11.13
2023-04-15T06:53:56.539Z,11.13
2023-04-15T06:54:56.544Z,11.17
2023-04-15T06:55:56.587Z,11.20
2023-04-15T06:56:56.498Z,11.26
2023-04-15T06:57:56.484Z,11.27
2023-04-15T06:58:56.469Z,11.33
2023-04-15T06:59:56.456Z,11.38
2023-04-15T07:00:56.444Z,11.44
2023-04-15T07:01:56.512Z,11.46
2023-04-15T07:02:56.446Z,11.46
2023-04-15T07:03:56.413Z,11.44
2023-04-15T07:04:56.466Z,11.45
2023-04-15T07:05:56.386Z,11.44
2023-04-15T07:06:56.493Z,11.44
2023-04-15T07:07:56.456Z,11.39
2023-04-15T07:08:56.354Z,11.38
2023-04-15T07:09:56.369Z,11.28
2023-04-15T07:10:56.459Z,11.27
2023-04-15T07:11:56.329Z,11.27
2023-04-15T07:12:56.358Z,11.24
2023-04-15T07:13:56.333Z,11.24
2023-04-15T07:14:56.345Z,11.21
2023-04-15T07:15:56.278Z,11.21
2023-04-15T07:16:56.330Z,11.21
2023-04-15T07:17:56.417Z,11.21
2023-04-15T07:18:56.254Z,11.24
2023-04-15T07:19:56.293Z,11.24
2023-04-15T07:20:56.246Z,11.27
2023-04-15T07:21:56.254Z,11.26
2023-04-15T07:22:56.232Z,11.26
2023-04-15T07:23:56.182Z,11.27
2023-04-15T07:24:56.225Z,11.28
2023-04-15T07:25:56.186Z,11.33
2023-04-15T07:26:56.850Z,11.36
2023-04-15T07:27:56.190Z,11.36
2023-04-15T07:28:56.151Z,11.38
2023-04-15T07:29:56.158Z,11.38
2023-04-15T07:30:56.173Z,11.35
2023-04-15T07:31:56.110Z,11.33
2023-04-15T07:32:56.134Z,11.33
2023-04-15T07:33:56.091Z,11.31
2023-04-15T07:34:56.430Z,11.30
2023-04-15T07:35:56.092Z,11.27
2023-04-15T07:36:56.065Z,11.23
2023-04-15T07:37:56.036Z,11.21
2023-04-15T07:38:56.094Z,11.16
2023-04-15T07:39:56.103Z,11.16
2023-04-15T07:40:56.038Z,11.13
2023-04-15T07:41:56.019Z,11.13
2023-04-15T07:42:56.069Z,11.12
2023-04-15T07:43:55.985Z,11.09
2023-04-15T07:44:56.010Z,11.11
2023-04-15T07:45:56.042Z,11.13
2023-04-15T07:46:55.951Z,11.09
2023-04-15T07:47:56.096Z,11.11
2023-04-15T07:48:55.935Z,11.08
2023-04-15T07:49:55.932Z,11.06
2023-04-15T07:50:55.933Z,11.05
2023-04-15T07:51:55.896Z,11.02
2023-04-15T07:52:55.931Z,11.01
2023-04-15T07:53:55.900Z,11.01
2023-04-15T07:54:55.882Z,10.98
2023-04-15T07:55:55.884Z,10.98
2023-04-15T07:56:55.874Z,10.93
2023-04-15T07:57:55.850Z,10.93
2023-04-15T07:58:55.854Z,10.93
2023-04-15T07:59:55.887Z,10.93
2023-04-15T08:00:55.820Z,10.91
2023-04-15T08:01:55.863Z,10.87
2023-04-15T08:02:55.886Z,10.87
2023-04-15T08:03:55.945Z,10.86
2023-04-15T08:04:55.807Z,10.88
2023-04-15T08:05:55.821Z,10.91
2023-04-15T08:06:55.756Z,10.93
2023-04-15T08:07:55.795Z,10.95
2023-04-15T08:08:55.730Z,10.98
2023-04-15T08:09:55.758Z,10.99
2023-04-15T08:10:55.708Z,10.99
2023-04-15T08:11:55.685Z,10.95
2023-04-15T08:12:55.738Z,10.95
2023-04-15T08:13:55.701Z,10.90
2023-04-15T08:14:55.712Z,10.90
2023-04-15T08:15:55.711Z,10.91
2023-04-15T08:16:55.646Z,10.91
2023-04-15T08:17:55.654Z,10.90
2023-04-15T08:18:55.612Z,10.91
2023-04-15T08:19:55.690Z,10.93
2023-04-15T08:20:55.607Z,10.90
2023-04-15T08:21:55.621Z,10.91
2023-04-15T08:22:55.563Z,10.91
2023-04-15T08:23:55.581Z,10.91
2023-04-15T08:24:55.659Z,10.93
2023-04-15T08:25:55.554Z,10.93
2023-04-15T08:26:55.520Z,10.94
2023-04-15T08:27:55.533Z,10.95
2023-04-15T08:28:55.497Z,10.98
2023-04-15T08:29:55.521Z,10.95
2023-04-15T08:30:55.487Z,10.95
2023-04-15T08:31:55.529Z,10.99
2023-04-15T08:32:55.475Z,11.06
2023-04-15T08:33:55.473Z,11.08
2023-04-15T08:34:55.465Z,11.11
2023-04-15T08:35:55.435Z,11.13
2023-04-15T08:36:55.435Z,11.17
2023-04-15T08:37:55.431Z,11.16
2023-04-15T08:38:55.392Z,11.16
2023-04-15T08:39:55.452Z,11.13
2023-04-15T08:40:55.406Z,11.13
2023-04-15T08:41:55.372Z,11.12
2023-04-15T08:42:55.489Z,11.11
2023-04-15T08:43:55.384Z,11.11
2023-04-15T08:44:55.410Z,11.08
2023-04-15T08:45:55.379Z,11.05
2023-04-15T08:46:55.385Z,11.05
2023-04-15T08:47:55.343Z,11.02
2023-04-15T08:48:55.373Z,10.99
2023-04-15T08:49:55.353Z,11.01
2023-04-15T08:50:55.276Z,10.98
2023-04-15T08:51:55.307Z,10.99
2023-04-15T08:52:55.293Z,10.99
2023-04-15T08:53:55.276Z,11.01
2023-04-15T08:54:55.241Z,11.03
2023-04-15T08:55:55.235Z,11.03
2023-04-15T08:56:55.251Z,11.06
2023-04-15T08:57:55.260Z,11.11
2023-04-15T08:58:55.304Z,11.12
2023-04-15T08:59:55.216Z,11.17
2023-04-15T09:00:55.285Z,11.19
2023-04-15T09:01:55.253Z,11.21
2023-04-15T09:02:55.292Z,11.21
2023-04-15T09:03:55.338Z,11.23
2023-04-15T09:04:55.186Z,11.23
2023-04-15T09:05:55.210Z,11.30
2023-04-15T09:06:55.162Z,11.36
2023-04-15T09:07:55.205Z,11.39
2023-04-15T09:08:55.208Z,11.39
2023-04-15T09:09:55.114Z,11.42
2023-04-15T09:10:55.125Z,11.44
2023-04-15T09:11:55.062Z,11.46
2023-04-15T09:12:55.053Z,11.48
2023-04-15T09:13:55.068Z,11.48
2023-04-15T09:14:55.064Z,11.46
2023-04-15T09:15:55.010Z,11.45
2023-04-15T09:16:55.100Z,11.44
2023-04-15T09:17:55.018Z,11.44
2023-04-15T09:18:55.084Z,11.42
2023-04-15T09:19:55.019Z,11.41
2023-04-15T09:20:54.979Z,11.41
2023-04-15T09:21:57.330Z,11.39
2023-04-15T09:22:54.943Z,11.44
2023-04-15T09:23:54.932Z,11.42
2023-04-15T09:24:54.934Z,11.44
2023-04-15T09:25:54.905Z,11.46
2023-04-15T09:26:54.982Z,11.46
2023-04-15T09:27:54.877Z,11.49
2023-04-15T09:28:54.916Z,11.51
2023-04-15T09:29:54.879Z,11.48
2023-04-15T09:30:54.931Z,11.49
2023-04-15T09:31:54.866Z,11.46
2023-04-15T09:32:54.834Z,11.44
2023-04-15T09:33:54.816Z,11.41
2023-04-15T09:34:54.807Z,11.36
2023-04-15T09:35:54.824Z,11.31
2023-04-15T09:36:54.801Z,11.30
2023-04-15T09:37:54.792Z,11.30
2023-04-15T09:38:54.782Z,11.33
2023-04-15T09:39:54.802Z,11.30
2023-04-15T09:40:54.758Z,11.31
2023-04-15T09:41:54.766Z,11.33
2023-04-15T09:42:54.714Z,11.31
2023-04-15T09:43:54.724Z,11.31
2023-04-15T09:44:54.751Z,11.27
2023-04-15T09:45:54.725Z,11.27
2023-04-15T09:46:54.779Z,11.23
2023-04-15T09:47:56.172Z,11.24
2023-04-15T09:48:54.655Z,11.23
2023-04-15T09:49:54.753Z,11.20
2023-04-15T09:50:54.647Z,11.24
2023-04-15T09:52:04.565Z,11.26
2023-04-15T09:52:54.620Z,11.24
2023-04-15T09:53:54.620Z,11.27
2023-04-15T09:54:54.594Z,11.30
2023-04-15T09:55:54.766Z,11.30
2023-04-15T09:56:54.563Z,11.30
2023-04-15T09:57:54.564Z,11.30
2023-04-15T09:58:54.557Z,11.30
2023-04-15T09:59:54.551Z,11.28
2023-04-15T10:00:54.572Z,11.27
2023-04-15T10:01:54.601Z,11.26
2023-04-15T10:02:54.710Z,11.20
2023-04-15T10:03:54.654Z,11.20
2023-04-15T10:04:54.497Z,11.19
2023-04-15T10:05:54.485Z,11.16
2023-04-15T10:06:54.548Z,11.16
2023-04-15T10:07:54.481Z,11.17
2023-04-15T10:08:54.519Z,11.20
2023-04-15T10:09:54.501Z,11.21
2023-04-15T10:10:54.460Z,11.20
2023-04-15T10:11:54.422Z,11.21
2023-04-15T10:12:54.405Z,11.24
2023-04-15T10:13:54.429Z,11.26
2023-04-15T10:14:54.411Z,11.24
2023-04-15T10:16:00.468Z,11.26
2023-04-15T10:16:54.356Z,11.26
2023-04-15T10:17:54.405Z,11.27
2023-04-15T10:18:54.432Z,11.28
2023-04-15T10:19:54.344Z,11.30
2023-04-15T10:20:54.307Z,11.30
2023-04-15T10:21:54.324Z,11.31
2023-04-15T10:22:54.301Z,11.33
2023-04-15T10:23:54.312Z,11.36
2023-04-15T10:24:54.267Z,11.41
2023-04-15T10:25:54.286Z,11.45
2023-04-15T10:26:54.258Z,11.45
2023-04-15T10:27:54.311Z,11.53
2023-04-15T10:28:54.228Z,11.53
2023-04-15T10:29:54.225Z,11.53
2023-04-15T10:30:54.240Z,11.53
2023-04-15T10:31:54.210Z,11.51
2023-04-15T10:32:54.267Z,11.56
2023-04-15T10:33:54.196Z,11.59
2023-04-15T10:34:54.698Z,11.62
2023-04-15T10:35:54.163Z,11.63
2023-04-15T10:36:54.157Z,11.64
2023-04-15T10:37:54.133Z,11.66
2023-04-15T10:38:54.126Z,11.67
2023-04-15T10:39:54.167Z,11.69
2023-04-15T10:40:54.109Z,11.72
2023-04-15T10:41:54.109Z,11.77
2023-04-15T10:42:54.095Z,11.79
2023-04-15T10:43:54.095Z,11.84
2023-04-15T10:44:54.058Z,11.84
2023-04-15T10:45:54.087Z,11.85
2023-04-15T10:46:54.126Z,11.88
2023-04-15T10:47:54.114Z,11.82
2023-04-15T10:48:54.053Z,11.75
2023-04-15T10:49:54.073Z,11.72
2023-04-15T10:50:53.992Z,11.69
2023-04-15T10:51:54.041Z,11.69
2023-04-15T10:52:54.212Z,11.64
2023-04-15T10:53:53.977Z,11.62
2023-04-15T10:54:54.018Z,11.64
2023-04-15T10:55:53.952Z,11.66
2023-04-15T10:56:53.925Z,11.64
2023-04-15T10:57:54.048Z,11.66
2023-04-15T10:58:53.968Z,11.63
2023-04-15T10:59:53.947Z,11.62
2023-04-15T11:00:53.914Z,11.62
2023-04-15T11:01:53.974Z,11.59
2023-04-15T11:02:54.032Z,11.53
2023-04-15T11:03:54.035Z,11.51
2023-04-15T11:04:54.069Z,11.49
2023-04-15T11:05:53.843Z,11.49
2023-04-15T11:06:53.820Z,11.46
2023-04-15T11:07:53.846Z,11.46
2023-04-15T11:08:53.807Z,11.45
2023-04-15T11:09:53.807Z,11.46
2023-04-15T11:10:53.779Z,11.44
2023-04-15T11:11:53.802Z,11.46
2023-04-15T11:12:53.828Z,11.45
2023-04-15T11:13:53.758Z,11.45
2023-04-15T11:14:53.745Z,11.44
2023-04-15T11:15:53.724Z,11.39
2023-04-15T11:16:53.723Z,11.39
2023-04-15T11:17:53.780Z,11.42
2023-04-15T11:18:53.705Z,11.41
2023-04-15T11:19:53.736Z,11.38
2023-04-15T11:20:53.680Z,11.38
2023-04-15T11:21:53.662Z,11.36
2023-04-15T11:23:14.110Z,11.36
2023-04-15T11:23:53.643Z,11.36
2023-04-15T11:24:53.643Z,11.39
2023-04-15T11:25:53.635Z,11.41
2023-04-15T11:26:53.602Z,11.41
2023-04-15T11:27:53.605Z,11.41
2023-04-15T11:28:53.582Z,11.41
2023-04-15T11:29:53.627Z,11.41
2023-04-15T11:30:53.563Z,11.44
2023-04-15T11:31:53.611Z,11.45
2023-04-15T11:32:53.596Z,11.42
2023-04-15T11:33:53.534Z,11.41
2023-04-15T11:34:53.512Z,11.41
2023-04-15T11:35:53.521Z,11.39
2023-04-15T11:36:53.520Z,11.39
2023-04-15T11:37:53.500Z,11.41
2023-04-15T11:38:53.526Z,11.45
2023-04-15T11:39:53.488Z,11.45
2023-04-15T11:40:53.466Z,11.45
2023-04-15T11:41:53.475Z,11.48
2023-04-15T11:42:53.435Z,11.49
2023-04-15T11:43:53.432Z,11.49
2023-04-15T11:44:53.417Z,11.51
2023-04-15T11:45:53.522Z,11.48
2023-04-15T11:46:53.412Z,11.48
2023-04-15T11:47:53.449Z,11.48
2023-04-15T11:48:53.372Z,11.49
2023-04-15T11:49:53.359Z,11.46
2023-04-15T11:50:53.359Z,11.46
2023-04-15T11:51:53.357Z,11.46
2023-04-15T11:52:53.355Z,11.46
2023-04-15T11:53:53.338Z,11.46
2023-04-15T11:54:53.324Z,11.46
2023-04-15T11:55:53.335Z,11.48
2023-04-15T11:56:53.297Z,11.48
2023-04-15T11:57:53.293Z,11.46
2023-04-15T11:58:53.264Z,11.49
2023-04-15T11:59:53.259Z,11.48
2023-04-15T12:00:53.268Z,11.49
2023-04-15T12:01:53.281Z,11.54
2023-04-15T12:02:53.332Z,11.56
2023-04-15T12:03:53.316Z,11.57
2023-04-15T12:04:53.270Z,11.57
2023-04-15T12:05:53.206Z,11.59
2023-04-15T12:06:53.266Z,11.57
2023-04-15T12:07:53.181Z,11.59
2023-04-15T12:08:53.174Z,11.60
2023-04-15T12:09:53.158Z,11.62
2023-04-15T12:10:53.182Z,11.63
2023-04-15T12:11:53.145Z,11.66
2023-04-15T12:12:53.122Z,11.67
2023-04-15T12:13:53.109Z,11.69
2023-04-15T12:14:53.091Z,11.72
2023-04-15T12:15:53.144Z,11.75
2023-04-15T12:16:53.100Z,11.77
2023-04-15T12:17:53.068Z,11.81
2023-04-15T12:18:53.047Z,11.85
2023-04-15T12:19:53.041Z,11.87
2023-04-15T12:20:53.057Z,11.96
2023-04-15T12:21:53.055Z,11.97
2023-04-15T12:22:53.003Z,11.98
2023-04-15T12:23:53.052Z,11.98
2023-04-15T12:24:53.012Z,12.04
2023-04-15T12:25:53.036Z,12.05
2023-04-15T12:26:53.026Z,12.08
2023-04-15T12:27:52.964Z,12.08
2023-04-15T12:28:52.954Z,12.12
2023-04-15T12:29:52.939Z,12.15
2023-04-15T12:30:53.068Z,12.18
2023-04-15T12:31:52.926Z,12.22
2023-04-15T12:32:52.935Z,12.21
2023-04-15T12:33:52.915Z,12.21
2023-04-15T12:34:52.901Z,12.21
2023-04-15T12:35:52.978Z,12.21
2023-04-15T12:36:52.943Z,12.21
2023-04-15T12:37:52.936Z,12.21
2023-04-15T12:38:52.852Z,12.19
2023-04-15T12:39:52.827Z,12.21
2023-04-15T12:40:52.839Z,12.22
2023-04-15T12:41:52.844Z,12.23
2023-04-15T12:42:52.805Z,12.19
2023-04-15T12:43:52.790Z,12.21
2023-04-15T12:44:52.798Z,12.22
2023-04-15T12:45:52.880Z,12.23
2023-04-15T12:46:53.181Z,12.23
2023-04-15T12:47:52.840Z,12.23
2023-04-15T12:48:52.830Z,12.23
2023-04-15T12:49:52.768Z,12.21
2023-04-15T12:50:52.740Z,12.19
2023-04-15T12:51:52.733Z,12.15
2023-04-15T12:52:52.704Z,12.12
2023-04-15T12:53:52.702Z,12.12
2023-04-15T12:54:52.718Z,12.07
2023-04-15T12:55:52.731Z,12.01
2023-04-15T12:56:52.668Z,11.98
2023-04-15T12:57:52.689Z,11.96
2023-04-15T12:58:52.696Z,11.94
2023-04-15T12:59:52.701Z,11.94
2023-04-15T13:00:52.616Z,11.93
2023-04-15T13:01:52.879Z,11.94
2023-04-15T13:02:52.649Z,11.97